Time;durP1;ratioP1;P1;durP2;ratioP2;P2;SDS_P1;SDS_P2;PMS_P1;PMS_P2;Temp;Humidity;BMP_temperature;BMP_pressure;BME280_temperature;BME280_humidity;BME280_pressure;Samples;Min_cycle;Max_cycle;Signal;HPM_P1;HPM_P2
2022/06/27 00:00:10;;;;;;;8.48;7.35;;;18.30;99.90;;;;;;4928599;28;20047;-76
2022/06/27 00:02:39;;;;;;;8.43;6.07;;;18.30;99.90;;;;;;4925392;28;20158;-76
2022/06/27 00:05:05;;;;;;;9.20;6.80;;;18.30;99.90;;;;;;4932025;28;20055;-76
2022/06/27 00:07:31;;;;;;;9.20;6.65;;;18.30;99.90;;;;;;4926524;28;20098;-75
2022/06/27 00:09:57;;;;;;;12.30;6.65;;;18.30;99.90;;;;;;4928870;29;20051;-75
2022/06/27 00:12:23;;;;;;;9.75;7.63;;;18.30;99.90;;;;;;4930446;28;21049;-76
2022/06/27 00:14:49;;;;;;;10.70;7.40;;;18.30;99.90;;;;;;4926038;28;20058;-78
2022/06/27 00:17:14;;;;;;;8.13;7.20;;;18.30;99.90;;;;;;4935607;28;20070;-76
2022/06/27 00:19:40;;;;;;;11.95;7.55;;;18.30;99.90;;;;;;4938749;28;20051;-76
2022/06/27 00:22:06;;;;;;;9.30;6.82;;;18.20;99.90;;;;;;4938625;28;20097;-76
2022/06/27 00:24:32;;;;;;;9.57;6.75;;;18.20;99.90;;;;;;4939661;28;20138;-76
2022/06/27 00:26:58;;;;;;;8.52;7.10;;;18.20;99.90;;;;;;4940184;28;20850;-76
2022/06/27 00:29:24;;;;;;;12.00;7.85;;;18.20;99.90;;;;;;4941453;28;20047;-76
2022/06/27 00:31:49;;;;;;;12.25;8.00;;;18.20;99.90;;;;;;4938030;29;20047;-76
2022/06/27 00:34:16;;;;;;;8.40;6.95;;;18.20;99.90;;;;;;4936503;28;20154;-76
2022/06/27 00:36:42;;;;;;;7.72;6.05;;;18.20;99.90;;;;;;4936866;28;20161;-76
2022/06/27 00:39:08;;;;;;;8.30;6.63;;;18.20;99.90;;;;;;4936926;28;20079;-76
2022/06/27 00:41:33;;;;;;;10.15;7.03;;;18.20;99.90;;;;;;4933453;28;20166;-76
2022/06/27 00:43:59;;;;;;;9.77;7.13;;;18.20;99.90;;;;;;4938677;28;20047;-76
2022/06/27 00:46:25;;;;;;;7.03;6.32;;;18.20;99.90;;;;;;4931790;28;20054;-75
2022/06/27 00:48:50;;;;;;;10.80;6.60;;;18.10;99.90;;;;;;4937506;28;20057;-76
2022/06/27 00:51:16;;;;;;;10.15;7.47;;;18.10;99.90;;;;;;4927751;29;20047;-76
2022/06/27 00:53:42;;;;;;;14.35;7.50;;;18.10;99.90;;;;;;4940418;28;20098;-76
2022/06/27 00:56:08;;;;;;;10.23;6.78;;;18.10;99.90;;;;;;4936906;28;20051;-76
2022/06/27 00:58:34;;;;;;;8.45;6.55;;;18.10;99.90;;;;;;4936591;28;20433;-76
2022/06/27 01:00:59;;;;;;;11.73;7.13;;;18.10;99.90;;;;;;4931296;29;20194;-76
2022/06/27 01:03:25;;;;;;;8.65;6.68;;;18.10;99.90;;;;;;4940228;28;20051;-76
2022/06/27 01:05:51;;;;;;;8.25;7.43;;;18.10;99.90;;;;;;4935253;29;20154;-76
2022/06/27 01:08:22;;;;;;;10.85;7.75;;;18.10;99.90;;;;;;4939751;28;20467;-76
2022/06/27 01:10:48;;;;;;;11.98;6.90;;;18.10;99.90;;;;;;4937619;29;20125;-76
2022/06/27 01:13:14;;;;;;;10.18;7.57;;;18.10;99.90;;;;;;4932475;28;20082;-76
2022/06/27 01:15:43;;;;;;;10.63;6.55;;;18.10;99.90;;;;;;4926473;28;20137;-76
2022/06/27 01:18:10;;;;;;;7.35;6.20;;;17.50;99.90;;;;;;4940999;28;20058;-75
2022/06/27 01:20:36;;;;;;;11.32;8.68;;;18.20;99.90;;;;;;4940815;29;20078;-75
2022/06/27 01:23:02;;;;;;;11.15;7.57;;;18.10;99.90;;;;;;4939950;28;20109;-75
2022/06/27 01:25:28;;;;;;;9.10;8.20;;;18.10;99.90;;;;;;4935746;28;20050;-76
2022/06/27 01:27:54;;;;;;;9.93;7.32;;;18.00;99.90;;;;;;4937592;28;20984;-76
2022/06/27 01:30:21;;;;;;;10.13;7.70;;;17.90;99.90;;;;;;4932240;29;20051;-77
2022/06/27 01:32:49;;;;;;;9.93;7.43;;;17.90;99.90;;;;;;4926522;28;20043;-76
2022/06/27 01:35:15;;;;;;;10.80;7.88;;;18.00;99.90;;;;;;4941781;28;20059;-76
2022/06/27 01:37:41;;;;;;;8.80;7.90;;;17.90;99.90;;;;;;4926355;28;20074;-76
2022/06/27 01:40:07;;;;;;;11.25;7.30;;;17.90;99.90;;;;;;4924646;29;20586;-76
2022/06/27 01:42:34;;;;;;;7.35;6.57;;;17.90;99.90;;;;;;4934270;29;20561;-77
2022/06/27 01:45:00;;;;;;;8.45;6.72;;;18.00;99.90;;;;;;4937340;28;20159;-77
2022/06/27 01:47:27;;;;;;;9.57;6.88;;;17.90;99.90;;;;;;4936432;28;20055;-77
2022/06/27 01:49:53;;;;;;;10.35;8.00;;;17.90;99.90;;;;;;4933250;28;20056;-76
2022/06/27 01:52:19;;;;;;;8.43;6.32;;;17.90;99.90;;;;;;4934730;28;20058;-77
2022/06/27 01:54:45;;;;;;;10.15;7.63;;;18.00;99.90;;;;;;4937168;28;20571;-77
2022/06/27 01:57:14;;;;;;;11.25;7.82;;;18.00;99.90;;;;;;4936390;29;20047;-76
2022/06/27 01:59:40;;;;;;;10.23;9.07;;;17.90;99.90;;;;;;4933083;28;20428;-76
2022/06/27 02:02:06;;;;;;;14.57;9.05;;;17.90;99.90;;;;;;4928376;29;20078;-76
2022/06/27 02:04:33;;;;;;;11.77;8.75;;;17.90;99.90;;;;;;4931878;28;20055;-76
2022/06/27 02:06:59;;;;;;;8.93;7.13;;;17.90;99.90;;;;;;4933579;29;20063;-76
2022/06/27 02:09:25;;;;;;;6.75;6.13;;;17.90;99.90;;;;;;4933305;29;20055;-77
2022/06/27 02:11:52;;;;;;;12.25;9.00;;;17.90;99.90;;;;;;4939852;28;20042;-77
2022/06/27 02:14:21;;;;;;;9.68;7.32;;;17.90;99.90;;;;;;4927670;28;20052;-76
2022/06/27 02:16:47;;;;;;;12.02;8.20;;;17.90;99.90;;;;;;4937907;29;20051;-76
2022/06/27 02:19:15;;;;;;;11.25;8.40;;;17.90;99.90;;;;;;4940269;28;20051;-75
2022/06/27 02:21:42;;;;;;;11.48;8.45;;;17.90;99.90;;;;;;4935955;28;20051;-76
2022/06/27 02:24:09;;;;;;;9.48;7.97;;;17.90;99.90;;;;;;4930241;28;20467;-77
2022/06/27 02:26:35;;;;;;;12.43;8.20;;;17.90;99.90;;;;;;4937585;29;20133;-76
2022/06/27 02:29:01;;;;;;;12.75;8.68;;;17.90;99.90;;;;;;4937398;29;20059;-77
2022/06/27 02:31:28;;;;;;;9.20;7.78;;;17.90;99.90;;;;;;4937815;28;20054;-76
2022/06/27 02:33:56;;;;;;;14.23;9.00;;;17.90;99.90;;;;;;4937456;28;20047;-76
2022/06/27 02:36:31;;;;;;;9.77;8.43;;;17.80;99.90;;;;;;4930110;29;20565;-75
2022/06/27 02:38:59;;;;;;;9.77;8.20;;;17.80;99.90;;;;;;4933661;28;20051;-76
2022/06/27 02:41:27;;;;;;;10.80;7.78;;;17.70;99.90;;;;;;4931052;29;20139;-76
2022/06/27 02:43:59;;;;;;;11.55;8.90;;;17.70;99.90;;;;;;4938194;28;20045;-76
2022/06/27 02:46:26;;;;;;;12.27;9.15;;;17.70;99.90;;;;;;4929861;28;20051;-76
2022/06/27 02:48:52;;;;;;;10.77;9.07;;;17.60;99.90;;;;;;4933091;28;20066;-76
2022/06/27 02:51:24;;;;;;;19.27;10.32;;;17.60;99.90;;;;;;4931440;29;20054;-76
2022/06/27 02:54:20;;;;;;;15.05;11.38;;;17.50;99.90;;;;;;4921151;28;20051;-75
2022/06/27 02:56:52;;;;;;;11.10;9.07;;;17.50;99.90;;;;;;4931347;29;20053;-76
2022/06/27 02:59:26;;;;;;;12.73;10.40;;;17.50;99.90;;;;;;4937622;28;20057;-75
2022/06/27 03:01:54;;;;;;;15.30;10.02;;;17.50;99.90;;;;;;4940374;28;20074;-76
2022/06/27 03:04:20;;;;;;;16.15;11.10;;;17.50;99.90;;;;;;4937351;28;20054;-75
2022/06/27 03:06:46;;;;;;;15.25;11.13;;;17.40;99.90;;;;;;4939637;29;20046;-75
2022/06/27 03:09:12;;;;;;;11.52;10.00;;;17.40;99.90;;;;;;4937535;28;20113;-75
2022/06/27 03:11:38;;;;;;;13.73;9.85;;;17.40;99.90;;;;;;4927669;28;20512;-76
2022/06/27 03:14:03;;;;;;;12.23;9.30;;;17.40;99.90;;;;;;4936906;29;20052;-76
2022/06/27 03:16:29;;;;;;;11.30;8.82;;;17.30;99.90;;;;;;4939171;28;20059;-76
2022/06/27 03:18:55;;;;;;;13.90;10.57;;;17.30;99.90;;;;;;4935832;28;20833;-76
2022/06/27 03:21:21;;;;;;;14.70;8.98;;;17.30;99.90;;;;;;4938289;28;20142;-75
2022/06/27 03:23:48;;;;;;;12.63;9.18;;;17.30;99.90;;;;;;4935634;28;20055;-76
2022/06/27 03:26:15;;;;;;;12.73;9.77;;;17.30;99.90;;;;;;4938030;28;20458;-76
2022/06/27 03:28:41;;;;;;;12.15;9.63;;;17.30;99.90;;;;;;4938409;28;20173;-76
2022/06/27 03:31:07;;;;;;;14.50;10.50;;;17.30;99.90;;;;;;4931729;28;20575;-76
2022/06/27 03:33:33;;;;;;;11.57;9.27;;;17.30;99.90;;;;;;4935350;28;20482;-75
2022/06/27 03:35:58;;;;;;;10.75;8.57;;;17.20;99.90;;;;;;4930213;28;20377;-76
2022/06/27 03:38:24;;;;;;;10.05;7.15;;;17.20;99.90;;;;;;4923204;29;20051;-76
2022/06/27 03:40:50;;;;;;;13.25;7.93;;;16.70;99.90;;;;;;4937403;28;20058;-76
2022/06/27 03:43:15;;;;;;;10.27;7.65;;;17.20;99.90;;;;;;4935921;28;20055;-76
2022/06/27 03:45:41;;;;;;;9.85;8.20;;;17.10;99.90;;;;;;4937684;28;20054;-76
2022/06/27 03:48:07;;;;;;;9.35;6.95;;;17.20;99.90;;;;;;4938409;28;20838;-76
2022/06/27 03:50:35;;;;;;;10.20;7.63;;;17.10;99.90;;;;;;4935426;28;20454;-76
2022/06/27 03:53:01;;;;;;;11.68;6.88;;;17.20;99.90;;;;;;4937897;28;20082;-76
2022/06/27 03:55:27;;;;;;;8.75;6.82;;;17.10;99.90;;;;;;4933107;28;20110;-76
2022/06/27 03:57:56;;;;;;;6.75;5.35;;;17.10;99.90;;;;;;4929539;29;20063;-76
2022/06/27 04:00:24;;;;;;;8.48;5.57;;;17.10;99.90;;;;;;4936608;28;20082;-76
2022/06/27 04:02:51;;;;;;;7.78;5.25;;;17.10;99.90;;;;;;4939042;28;20051;-76
2022/06/27 04:05:17;;;;;;;8.30;5.50;;;17.10;99.90;;;;;;4934526;28;20063;-76
2022/06/27 04:07:43;;;;;;;6.65;5.45;;;17.10;99.90;;;;;;4937800;29;20058;-76
2022/06/27 04:10:10;;;;;;;6.07;5.07;;;17.10;99.90;;;;;;4923599;28;20058;-76
2022/06/27 04:12:37;;;;;;;7.13;5.30;;;17.10;99.90;;;;;;4937448;28;20226;-76
2022/06/27 04:15:05;;;;;;;5.78;4.82;;;17.10;99.90;;;;;;4936818;28;20047;-75
2022/06/27 04:17:31;;;;;;;5.07;4.57;;;17.10;99.90;;;;;;4937949;28;20055;-76
2022/06/27 04:19:57;;;;;;;6.35;4.47;;;17.10;99.90;;;;;;4937528;28;20546;-76
2022/06/27 04:22:23;;;;;;;7.55;5.38;;;17.10;99.90;;;;;;4937309;28;20166;-76
2022/06/27 04:24:50;;;;;;;8.30;4.60;;;17.20;99.90;;;;;;4937577;28;20105;-76
2022/06/27 04:27:19;;;;;;;8.48;5.20;;;17.10;99.90;;;;;;4937883;28;20047;-76
2022/06/27 04:29:45;;;;;;;6.68;4.88;;;17.20;99.90;;;;;;4937233;28;20142;-76
2022/06/27 04:32:11;;;;;;;5.15;4.28;;;17.20;99.90;;;;;;4939229;28;20050;-76
2022/06/27 04:34:37;;;;;;;5.07;4.22;;;17.10;99.90;;;;;;4926591;28;20060;-76
2022/06/27 04:37:03;;;;;;;7.85;4.45;;;17.10;99.90;;;;;;4931507;28;20086;-76
2022/06/27 04:39:30;;;;;;;3.63;3.17;;;17.10;99.90;;;;;;4930050;29;20492;-76
2022/06/27 04:41:56;;;;;;;5.07;3.78;;;17.00;99.90;;;;;;4932676;28;20048;-76
2022/06/27 04:44:22;;;;;;;4.25;3.58;;;17.00;99.90;;;;;;4927138;29;20048;-76
2022/06/27 04:46:48;;;;;;;3.25;2.88;;;17.00;99.90;;;;;;4930434;28;20066;-76
2022/06/27 04:49:15;;;;;;;4.85;3.42;;;17.00;99.90;;;;;;4934615;29;20133;-75
2022/06/27 04:51:43;;;;;;;4.18;2.60;;;17.00;99.90;;;;;;4927939;29;20159;-76
2022/06/27 04:54:10;;;;;;;3.22;2.85;;;16.90;99.90;;;;;;4934737;29;20609;-77
2022/06/27 04:56:41;;;;;;;4.82;2.78;;;16.90;99.90;;;;;;4932011;29;20051;-76
2022/06/27 04:59:06;;;;;;;4.45;3.03;;;16.90;99.90;;;;;;4927125;28;20055;-75
2022/06/27 05:01:32;;;;;;;3.45;3.15;;;16.90;99.90;;;;;;4931930;28;20204;-76
2022/06/27 05:03:58;;;;;;;6.05;3.35;;;16.90;99.90;;;;;;4927139;29;20051;-76
2022/06/27 05:06:24;;;;;;;3.88;3.25;;;16.90;99.90;;;;;;4930189;28;20062;-76
2022/06/27 05:08:50;;;;;;;4.60;2.67;;;16.90;99.90;;;;;;4936526;28;20044;-76
2022/06/27 05:11:16;;;;;;;4.82;3.22;;;16.90;99.90;;;;;;4933882;29;20889;-76
2022/06/27 05:13:42;;;;;;;4.05;3.08;;;17.00;99.90;;;;;;4926164;28;20051;-76
2022/06/27 05:16:07;;;;;;;3.38;3.08;;;17.00;99.90;;;;;;4931678;29;20526;-75
2022/06/27 05:18:33;;;;;;;3.42;2.45;;;17.00;99.90;;;;;;4939706;28;20051;-76
2022/06/27 05:20:59;;;;;;;3.83;2.45;;;17.00;99.90;;;;;;4939078;29;20794;-76
2022/06/27 05:23:24;;;;;;;3.30;2.83;;;17.00;99.90;;;;;;4925297;28;20051;-76
2022/06/27 05:25:50;;;;;;;1.90;1.70;;;17.00;99.90;;;;;;4937004;28;20053;-76
2022/06/27 05:28:16;;;;;;;3.67;2.00;;;17.10;99.90;;;;;;4937135;28;20613;-76
2022/06/27 05:30:42;;;;;;;2.60;2.40;;;17.10;99.90;;;;;;4934491;28;20047;-75
2022/06/27 05:33:08;;;;;;;3.42;2.38;;;17.10;99.90;;;;;;4939547;28;20039;-75
2022/06/27 05:35:34;;;;;;;3.90;2.70;;;17.20;99.90;;;;;;4935003;28;20784;-75
2022/06/27 05:38:00;;;;;;;2.75;2.13;;;17.30;99.90;;;;;;4937071;28;20610;-75
2022/06/27 05:40:27;;;;;;;3.50;2.25;;;17.30;99.90;;;;;;4933255;28;20122;-76
2022/06/27 05:42:54;;;;;;;2.92;2.60;;;17.40;99.90;;;;;;4926119;29;20149;-76
2022/06/27 05:45:21;;;;;;;3.67;2.90;;;17.50;99.90;;;;;;4927989;28;20047;-76
2022/06/27 05:47:47;;;;;;;3.10;2.50;;;17.50;99.90;;;;;;4931708;28;20058;-76
2022/06/27 05:50:13;;;;;;;2.78;2.40;;;17.60;99.90;;;;;;4927798;29;20094;-77
2022/06/27 05:52:39;;;;;;;3.13;2.30;;;17.70;99.90;;;;;;4932757;28;20043;-76
2022/06/27 05:55:07;;;;;;;3.08;2.65;;;17.80;99.90;;;;;;4929580;29;20059;-76
2022/06/27 05:57:33;;;;;;;2.72;2.53;;;17.90;99.90;;;;;;4938155;28;20495;-76
2022/06/27 05:59:58;;;;;;;2.85;2.10;;;18.00;99.90;;;;;;4935031;28;20150;-76
2022/06/27 06:02:25;;;;;;;3.38;2.08;;;18.10;99.90;;;;;;4927943;28;20154;-77
2022/06/27 06:04:53;;;;;;;2.97;2.38;;;18.10;99.90;;;;;;4936967;29;20144;-76
2022/06/27 06:07:19;;;;;;;5.35;2.50;;;18.20;99.90;;;;;;4925287;28;20109;-76
2022/06/27 06:09:44;;;;;;;2.63;2.17;;;18.20;99.90;;;;;;4920219;28;20916;-76
2022/06/27 06:12:12;;;;;;;2.70;2.50;;;18.30;99.90;;;;;;4931466;28;20047;-76
2022/06/27 06:14:38;;;;;;;2.40;2.20;;;18.30;99.90;;;;;;4928862;28;20079;-77
2022/06/27 06:17:05;;;;;;;3.50;2.60;;;18.40;99.90;;;;;;4928435;28;20059;-78
2022/06/27 06:19:32;;;;;;;2.20;2.00;;;18.40;99.90;;;;;;4929167;28;20788;-76
2022/06/27 06:21:58;;;;;;;2.40;2.20;;;18.40;99.90;;;;;;4929780;29;20122;-76
2022/06/27 06:24:24;;;;;;;4.78;2.30;;;18.40;99.90;;;;;;4933694;28;20046;-76
2022/06/27 06:26:53;;;;;;;2.88;2.40;;;18.30;99.90;;;;;;4927401;28;20047;-76
2022/06/27 06:29:21;;;;;;;3.60;2.45;;;18.40;99.90;;;;;;4927828;28;20425;-76
2022/06/27 06:31:48;;;;;;;4.00;3.63;;;18.30;99.90;;;;;;4930035;29;20042;-77
2022/06/27 06:34:14;;;;;;;4.80;2.53;;;18.40;99.90;;;;;;4931913;28;20455;-76
2022/06/27 06:36:42;;;;;;;2.60;2.40;;;18.30;99.90;;;;;;4926184;29;20043;-76
2022/06/27 06:39:08;;;;;;;2.40;2.17;;;18.30;99.90;;;;;;4584515;28;10000149;-74
2022/06/27 06:41:35;;;;;;;3.60;2.67;;;18.30;99.90;;;;;;4917185;29;20075;-75
2022/06/27 06:44:05;;;;;;;4.25;3.08;;;18.30;99.90;;;;;;4923278;29;20051;-75
2022/06/27 06:46:32;;;;;;;3.65;2.88;;;18.30;99.90;;;;;;4927126;29;20370;-75
2022/06/27 06:49:02;;;;;;;3.05;2.70;;;18.30;99.90;;;;;;4920139;28;20070;-75
2022/06/27 06:51:31;;;;;;;2.80;2.55;;;18.30;99.90;;;;;;4918976;29;20079;-74
2022/06/27 06:53:58;;;;;;;3.33;2.55;;;18.20;99.90;;;;;;4918683;28;20134;-75
2022/06/27 06:56:24;;;;;;;3.53;2.30;;;18.30;99.90;;;;;;4922533;28;20044;-74
2022/06/27 06:58:50;;;;;;;3.63;2.80;;;18.30;99.90;;;;;;4921924;29;20051;-75
2022/06/27 07:01:16;;;;;;;3.28;2.95;;;18.30;99.90;;;;;;4919291;29;20133;-75
2022/06/27 07:03:42;;;;;;;3.67;2.85;;;18.70;99.90;;;;;;4923936;29;20047;-75
2022/06/27 07:06:09;;;;;;;3.03;2.58;;;18.30;99.90;;;;;;4922884;29;20312;-75
2022/06/27 07:08:40;;;;;;;3.30;2.60;;;18.40;99.90;;;;;;4931263;29;20944;-75
2022/06/27 07:11:08;;;;;;;2.83;2.55;;;18.40;99.90;;;;;;4921724;29;20051;-74
2022/06/27 07:13:34;;;;;;;2.90;2.47;;;18.50;99.90;;;;;;4924428;29;20070;-74
2022/06/27 07:15:59;;;;;;;2.70;2.50;;;18.50;99.90;;;;;;4919342;29;20916;-74
2022/06/27 07:18:25;;;;;;;3.40;2.75;;;18.50;99.90;;;;;;4924292;28;20055;-76
2022/06/27 07:20:52;;;;;;;3.85;3.55;;;18.50;99.90;;;;;;4926632;28;20055;-76
2022/06/27 07:23:20;;;;;;;2.38;1.98;;;18.50;99.90;;;;;;4924178;28;20584;-76
2022/06/27 07:25:46;;;;;;;2.33;2.10;;;18.50;99.90;;;;;;4926597;28;20050;-76
2022/06/27 07:28:12;;;;;;;4.32;2.80;;;18.40;99.90;;;;;;4922851;28;20055;-76
2022/06/27 07:30:40;;;;;;;3.63;2.95;;;18.40;99.90;;;;;;4924132;29;20085;-76
2022/06/27 07:33:07;;;;;;;3.72;2.70;;;18.40;99.90;;;;;;4924142;28;20043;-76
2022/06/27 07:35:33;;;;;;;4.20;3.03;;;18.40;99.90;;;;;;4923867;28;20146;-76
2022/06/27 07:38:00;;;;;;;3.72;3.13;;;18.30;99.90;;;;;;4921486;28;20058;-76
2022/06/27 07:40:25;;;;;;;3.72;2.97;;;18.30;99.90;;;;;;4925964;29;20066;-77
2022/06/27 07:42:54;;;;;;;3.63;2.75;;;18.30;99.90;;;;;;4931356;29;20035;-77
2022/06/27 07:45:24;;;;;;;5.45;3.00;;;19.10;99.90;;;;;;4924827;28;20154;-76
2022/06/27 07:47:51;;;;;;;4.57;2.95;;;18.30;99.90;;;;;;4921508;28;20495;-77
2022/06/27 07:53:11;;;;;;;5.30;3.25;;;18.40;99.90;;;;;;4920779;28;20060;-74
2022/06/27 07:55:39;;;;;;;3.13;2.78;;;18.40;99.90;;;;;;4930707;29;20046;-74
2022/06/27 07:58:07;;;;;;;2.65;2.33;;;18.40;99.90;;;;;;4925137;28;20114;-74
2022/06/27 08:00:33;;;;;;;5.45;3.10;;;18.40;99.90;;;;;;4925324;28;20161;-73
2022/06/27 08:03:36;;;;;;;3.15;2.85;;;18.40;99.90;;;;;;4923942;28;20638;-74
2022/06/27 08:05:45;;;;;;;4.55;3.50;;;18.40;99.90;;;;;;4925651;29;20184;-74
2022/06/27 08:08:10;;;;;;;2.85;2.30;;;18.30;99.90;;;;;;4918425;29;20143;-73
2022/06/27 08:10:36;;;;;;;3.00;2.70;;;18.30;99.90;;;;;;4925987;29;20055;-73
2022/06/27 08:13:02;;;;;;;3.42;2.65;;;18.30;99.90;;;;;;4925858;29;20043;-74
2022/06/27 08:15:27;;;;;;;5.15;3.10;;;18.40;99.90;;;;;;4923613;28;20047;-73
2022/06/27 08:17:54;;;;;;;3.80;3.13;;;18.40;99.90;;;;;;4925320;28;20840;-74
2022/06/27 08:20:19;;;;;;;2.70;2.50;;;18.40;99.90;;;;;;4924230;28;20055;-74
2022/06/27 08:22:45;;;;;;;4.57;3.53;;;18.40;99.90;;;;;;4928371;28;20048;-74
2022/06/27 08:25:11;;;;;;;4.38;3.53;;;18.30;99.90;;;;;;4931031;28;20146;-73
2022/06/27 08:27:37;;;;;;;3.72;3.25;;;18.30;99.90;;;;;;4939930;28;20845;-77
2022/06/27 08:30:03;;;;;;;6.80;3.35;;;18.20;99.90;;;;;;4939846;28;20051;-79
2022/06/27 08:32:29;;;;;;;4.90;4.07;;;18.20;99.90;;;;;;4930560;28;20054;-77
2022/06/27 08:34:55;;;;;;;4.00;3.33;;;18.20;99.90;;;;;;4939361;28;20055;-76
2022/06/27 08:37:23;;;;;;;4.90;3.30;;;18.40;99.90;;;;;;4926984;29;20047;-76
2022/06/27 08:39:48;;;;;;;5.10;3.65;;;18.50;99.90;;;;;;4940178;28;20055;-76
2022/06/27 08:42:15;;;;;;;3.40;3.10;;;18.50;99.90;;;;;;4939925;28;20062;-77
2022/06/27 08:44:41;;;;;;;7.32;3.90;;;18.60;99.90;;;;;;4941063;28;20051;-77
2022/06/27 08:47:07;;;;;;;5.78;4.22;;;18.70;99.90;;;;;;4935077;28;20054;-77
2022/06/27 08:49:34;;;;;;;4.15;3.70;;;18.80;99.90;;;;;;4929894;28;20051;-77
2022/06/27 08:52:02;;;;;;;4.22;3.45;;;18.90;99.90;;;;;;4929559;28;20690;-76
2022/06/27 08:54:28;;;;;;;6.25;3.80;;;18.80;99.90;;;;;;4926511;29;20051;-77
2022/06/27 08:56:55;;;;;;;5.70;3.67;;;18.80;99.90;;;;;;4934022;29;20051;-76
2022/06/27 08:59:21;;;;;;;6.68;4.00;;;18.90;99.90;;;;;;4940098;28;20062;-77
2022/06/27 09:01:48;;;;;;;4.85;4.18;;;18.90;99.90;;;;;;4928367;28;20059;-77
2022/06/27 09:04:14;;;;;;;4.90;4.15;;;19.00;99.90;;;;;;4930248;29;20051;-77
2022/06/27 09:06:43;;;;;;;7.45;4.00;;;19.00;99.90;;;;;;4929457;28;20054;-77
2022/06/27 09:09:09;;;;;;;7.22;3.95;;;19.00;99.90;;;;;;4924846;29;20044;-77
2022/06/27 09:11:46;;;;;;;6.90;3.45;;;19.10;99.90;;;;;;4931721;29;20055;-76
2022/06/27 09:14:39;;;;;;;6.78;3.47;;;19.10;99.90;;;;;;4932922;29;20130;-76
2022/06/27 09:17:09;;;;;;;6.20;4.10;;;19.10;99.90;;;;;;4932309;29;20060;-76
2022/06/27 09:19:53;;;;;;;6.25;3.70;;;19.20;99.90;;;;;;4939877;28;20233;-76
2022/06/27 09:22:21;;;;;;;4.80;3.47;;;19.20;99.90;;;;;;4936119;28;20368;-76
2022/06/27 09:25:06;;;;;;;7.00;3.75;;;19.30;99.90;;;;;;4931256;29;20567;-76
2022/06/27 09:27:40;;;;;;;4.25;3.40;;;19.30;99.90;;;;;;4931873;28;20635;-79
2022/06/27 09:30:18;;;;;;;4.35;3.65;;;19.30;99.90;;;;;;4938452;28;20233;-75
2022/06/27 09:32:44;;;;;;;3.20;2.90;;;19.30;99.90;;;;;;4929155;28;20040;-76
2022/06/27 09:35:31;;;;;;;4.00;2.92;;;19.30;99.90;;;;;;4930920;28;20430;-76
2022/06/27 09:37:59;;;;;;;3.25;2.75;;;19.40;99.90;;;;;;4934588;29;20062;-76
2022/06/27 09:40:27;;;;;;;3.10;2.90;;;19.30;99.90;;;;;;4928871;28;20705;-75
2022/06/27 09:42:55;;;;;;;4.80;3.20;;;19.30;99.90;;;;;;4930153;29;20048;-76
2022/06/27 09:45:27;;;;;;;3.22;2.92;;;19.30;99.90;;;;;;4935428;29;20526;-76
2022/06/27 09:47:58;;;;;;;7.47;3.85;;;19.20;99.90;;;;;;4937400;29;20082;-76
2022/06/27 09:50:29;;;;;;;4.13;3.33;;;19.20;99.90;;;;;;4932296;29;20847;-76
2022/06/27 09:52:56;;;;;;;5.80;3.70;;;19.20;99.90;;;;;;4933971;28;20051;-76
2022/06/27 09:55:23;;;;;;;4.07;3.65;;;19.30;99.90;;;;;;4926900;29;20056;-76
2022/06/27 09:57:50;;;;;;;5.05;3.60;;;19.40;99.90;;;;;;4936668;29;20055;-76
2022/06/27 10:00:19;;;;;;;3.42;3.13;;;19.50;99.90;;;;;;4928305;29;20074;-76
2022/06/27 10:02:46;;;;;;;3.00;2.70;;;19.50;99.90;;;;;;4924555;29;20044;-76
2022/06/27 10:05:16;;;;;;;3.83;3.42;;;19.60;99.90;;;;;;4931529;28;20078;-76
2022/06/27 10:07:52;;;;;;;6.03;4.53;;;19.70;99.90;;;;;;4927193;29;20896;-76
2022/06/27 10:10:18;;;;;;;3.85;3.50;;;19.70;99.90;;;;;;4926980;29;20055;-76
2022/06/27 10:12:57;;;;;;;4.47;3.33;;;19.70;99.90;;;;;;4928860;29;20043;-75
2022/06/27 10:15:25;;;;;;;4.47;4.07;;;19.60;99.90;;;;;;4930503;28;20061;-75
2022/06/27 10:17:53;;;;;;;4.47;3.78;;;19.60;99.90;;;;;;4928628;28;20055;-76
2022/06/27 10:20:39;;;;;;;3.47;2.75;;;19.70;99.90;;;;;;4921273;29;20058;-76
2022/06/27 10:23:13;;;;;;;3.78;2.92;;;19.80;99.90;;;;;;4924715;28;20047;-76
2022/06/27 10:25:41;;;;;;;4.82;4.28;;;20.00;99.90;;;;;;4927522;28;20110;-75
2022/06/27 10:28:13;;;;;;;5.72;4.45;;;20.20;99.90;;;;;;4929048;29;20051;-76
2022/06/27 10:30:44;;;;;;;3.85;3.40;;;20.30;99.90;;;;;;4922505;28;20138;-77
2022/06/27 10:33:25;;;;;;;3.75;3.20;;;20.30;99.90;;;;;;4927984;29;20064;-76
2022/06/27 10:36:04;;;;;;;4.15;3.15;;;20.30;99.90;;;;;;4928243;29;20055;-76
2022/06/27 10:38:51;;;;;;;7.13;2.97;;;20.40;99.90;;;;;;4921883;28;20812;-76
2022/06/27 10:41:19;;;;;;;3.47;3.10;;;20.50;99.90;;;;;;4919452;29;20052;-76
2022/06/27 10:43:49;;;;;;;3.00;2.60;;;20.60;99.90;;;;;;4927244;28;20039;-74
2022/06/27 10:46:14;;;;;;;2.63;2.40;;;20.60;99.90;;;;;;4922335;29;20078;-73
2022/06/27 10:48:47;;;;;;;2.63;2.42;;;20.70;99.90;;;;;;4924355;29;20057;-75
2022/06/27 10:51:28;;;;;;;;;;;20.80;99.90;;;;;;4930049;29;20134;-75
2022/06/27 10:54:06;;;;;;;2.72;2.45;;;20.80;99.90;;;;;;4926888;29;20020;-75
2022/06/27 10:56:37;;;;;;;2.50;2.15;;;21.00;99.90;;;;;;4924351;28;20621;-75
2022/06/27 10:59:13;;;;;;;2.60;2.28;;;21.20;99.90;;;;;;4922586;29;20938;-75
2022/06/27 11:02:04;;;;;;;2.72;2.22;;;21.30;99.90;;;;;;4928664;28;20043;-75
2022/06/27 11:04:31;;;;;;;2.75;1.60;;;21.40;99.90;;;;;;4934304;28;20086;-75
2022/06/27 11:07:08;;;;;;;3.90;2.13;;;21.40;99.90;;;;;;4934509;28;20455;-74
2022/06/27 11:09:43;;;;;;;1.83;1.73;;;21.50;99.90;;;;;;4934699;28;20054;-75
2022/06/27 11:12:13;;;;;;;2.53;2.33;;;21.50;99.90;;;;;;4935424;28;20070;-75
2022/06/27 11:14:47;;;;;;;2.58;2.33;;;21.60;99.90;;;;;;4922063;29;20492;-76
2022/06/27 11:17:32;;;;;;;2.92;2.50;;;21.80;99.90;;;;;;4929605;28;20074;-76
2022/06/27 11:20:29;;;;;;;2.40;1.92;;;21.80;99.90;;;;;;4930985;29;20043;-75
2022/06/27 11:22:59;;;;;;;2.35;1.90;;;21.70;99.90;;;;;;4926470;29;20051;-75
2022/06/27 11:25:28;;;;;;;2.10;1.95;;;21.90;99.90;;;;;;4933530;28;20330;-76
2022/06/27 11:33:34;;;;;;;2.20;2.00;;;22.10;99.90;;;;;;4918156;29;20097;-74
2022/06/27 11:36:01;;;;;;;2.60;1.65;;;22.00;99.90;;;;;;4925694;28;20846;-75
2022/06/27 11:38:32;;;;;;;1.90;1.73;;;21.90;99.90;;;;;;4923138;28;20048;-74
2022/06/27 11:41:06;;;;;;;2.13;1.55;;;21.80;99.90;;;;;;4916607;28;20043;-75
2022/06/27 11:43:52;;;;;;;3.17;2.00;;;21.60;99.90;;;;;;4924513;29;20083;-76
2022/06/27 11:46:30;;;;;;;3.17;1.90;;;21.50;99.90;;;;;;4922100;28;20059;-75
2022/06/27 11:49:04;;;;;;;1.60;1.50;;;21.50;99.90;;;;;;4916581;29;20055;-74
2022/06/27 11:51:57;;;;;;;2.28;1.60;;;21.50;99.90;;;;;;4918420;29;20039;-76
2022/06/27 11:54:22;;;;;;;2.30;1.87;;;21.40;99.90;;;;;;4918981;29;20070;-77
2022/06/27 11:56:52;;;;;;;2.05;1.80;;;21.40;99.90;;;;;;4922694;28;20051;-76
2022/06/27 11:59:19;;;;;;;2.10;1.90;;;21.40;99.90;;;;;;4913309;28;20075;-76
2022/06/27 12:02:03;;;;;;;2.67;2.10;;;21.30;99.90;;;;;;4920077;28;20323;-76
2022/06/27 12:04:30;;;;;;;1.65;1.55;;;21.10;99.90;;;;;;4927243;29;20043;-76
2022/06/27 12:07:07;;;;;;;2.85;2.40;;;21.10;99.90;;;;;;4921724;28;20155;-76
2022/06/27 12:09:50;;;;;;;2.28;2.05;;;21.00;99.90;;;;;;4925040;29;20822;-76
2022/06/27 12:12:21;;;;;;;2.90;2.10;;;21.00;99.90;;;;;;4927368;28;20055;-76
2022/06/27 12:14:50;;;;;;;4.13;2.53;;;21.00;99.90;;;;;;4929395;29;20774;-75
2022/06/27 12:17:16;;;;;;;2.03;1.83;;;21.00;99.90;;;;;;4927466;28;20138;-76
2022/06/27 12:19:43;;;;;;;3.45;2.80;;;21.00;99.90;;;;;;4927189;29;20792;-75
2022/06/27 12:24:47;;;;;;;2.40;2.17;;;20.90;99.90;;;;;;4862929;26;20067;-76
2022/06/27 12:27:13;;;;;;;2.33;1.90;;;21.00;99.90;;;;;;4933761;28;20494;-77
2022/06/27 12:29:38;;;;;;;3.85;2.35;;;21.00;99.90;;;;;;4927522;28;20048;-77
2022/06/27 12:32:04;;;;;;;2.55;2.35;;;21.10;99.90;;;;;;4930274;28;20195;-77
2022/06/27 12:34:31;;;;;;;2.35;2.15;;;21.10;99.90;;;;;;4922748;29;20194;-77
2022/06/27 12:36:57;;;;;;;3.75;2.30;;;21.10;99.90;;;;;;4931466;28;20078;-80
2022/06/27 12:39:23;;;;;;;2.88;2.67;;;21.20;99.90;;;;;;4929042;28;20047;-70
2022/06/27 12:41:50;;;;;;;3.00;2.70;;;21.20;99.90;;;;;;4929995;28;20060;-78
2022/06/27 12:44:16;;;;;;;3.05;2.80;;;21.30;99.90;;;;;;4931265;29;20094;-77
2022/06/27 12:46:42;;;;;;;3.15;2.40;;;21.20;99.90;;;;;;4935184;28;20122;-77
2022/06/27 12:49:07;;;;;;;2.88;2.53;;;21.30;99.90;;;;;;4933449;28;20062;-79
2022/06/27 12:51:33;;;;;;;3.38;2.92;;;21.20;99.90;;;;;;4934958;28;20048;-80
2022/06/27 12:54:00;;;;;;;2.60;2.40;;;21.30;99.90;;;;;;4928475;28;20043;-78
2022/06/27 12:56:26;;;;;;;2.63;2.42;;;21.20;99.90;;;;;;4928781;29;20086;-80
2022/06/27 12:58:52;;;;;;;3.70;3.38;;;21.10;99.90;;;;;;4938405;28;20130;-78
2022/06/27 13:01:18;;;;;;;3.17;2.55;;;21.00;99.90;;;;;;4931301;29;20098;-82